CheckWX is a tool to help pilots better visualize weather data.  It is not intended as a substitute for an official pre-flight weather briefing.

07:28:34 UTC

PACV TAF
Merle K (Mudhole) Smith Airport
Cordova, Alaska, USA
PACV 210605Z 2106/2206 11010KT 4SM -RA BR OVC020 TEMPO 2106/2109 11015G25KT 1SM RA BR OVC007 FM210900 14008KT 5SM -RA BR OVC025 FM211500 12006KT P6SM -SHRA SCT020 OVC030 FM212200 10005KT P6SM VCSH SCT030 OVC050

Sep-21@
06:00 UTC

Sep-21 @ 06:00 UTC

Sep-21@
09:00 UTC

Sep-21 @ 09:00 UTC

PACV 210605Z 2106/2206 11010KT 4SM -RA BR OVC020
Wind
  • 110° at 10 KTS
Conditions
Light Rain, Mist
Cloud Levels
  • Overcast at 2,000' AGL

Sep-21@
06:00 UTC

Sep-21 @ 06:00 UTC

Sep-21@
09:00 UTC

Sep-21 @ 09:00 UTC

TEMPO 2106/2109 11015G25KT 1SM RA BR OVC007

Temporary

Temporary Changes expected for less than half the time period

Wind
  • 110° at 15 KTS
  • {Gusting to 25 KTS
Conditions
Rain, Mist
Cloud Levels
  • Overcast at 700' AGL

Sep-21@
09:00 UTC

Sep-21 @ 09:00 UTC

Sep-21@
15:00 UTC

Sep-21 @ 15:00 UTC

FM210900 14008KT 5SM -RA BR OVC025

From

From Standard forecast or significant change

Wind
  • 140° at 8 KTS
Conditions
Light Rain, Mist
Cloud Levels
  • Overcast at 2,500' AGL

Sep-21@
15:00 UTC

Sep-21 @ 15:00 UTC

Sep-21@
22:00 UTC

Sep-21 @ 22:00 UTC

FM211500 12006KT P6SM -SHRA SCT020 OVC030

From

From Standard forecast or significant change

Wind
  • 120° at 6 KTS
Conditions
Light Rain
Cloud Levels
  • Scattered at 2,000' AGL
  • Overcast at 3,000' AGL

Sep-21@
22:00 UTC

Sep-21 @ 22:00 UTC

Sep-22@
06:00 UTC

Sep-22 @ 06:00 UTC

FM212200 10005KT P6SM VCSH SCT030 OVC050

From

From Standard forecast or significant change

Wind
  • 100° at 5 KTS
Cloud Levels
  • Scattered at 3,000' AGL
  • Overcast at 5,000' AGL